createdAt,value
2023-04-27T00:00:02.055Z,91.18
2023-04-27T00:02:36.190Z,91.27
2023-04-27T00:05:04.056Z,91.39
2023-04-27T00:07:31.823Z,91.42
2023-04-27T00:09:58.632Z,91.48
2023-04-27T00:12:25.728Z,91.40
2023-04-27T00:14:52.681Z,91.39
2023-04-27T00:17:19.484Z,91.42
2023-04-27T00:19:47.451Z,91.53
2023-04-27T00:22:14.270Z,91.56
2023-04-27T00:24:42.007Z,91.62
2023-04-27T00:27:08.645Z,91.51
2023-04-27T00:29:35.550Z,91.32
2023-04-27T00:32:02.363Z,91.30
2023-04-27T00:34:29.153Z,91.29
2023-04-27T00:36:55.876Z,91.49
2023-04-27T00:39:22.545Z,91.31
2023-04-27T00:41:49.278Z,90.83
2023-04-27T00:44:23.655Z,90.91
2023-04-27T00:46:50.547Z,91.01
2023-04-27T00:49:19.508Z,90.91
2023-04-27T00:51:48.360Z,90.95
2023-04-27T00:54:19.990Z,90.90
2023-04-27T00:56:50.711Z,90.95
2023-04-27T00:59:18.570Z,91.18
2023-04-27T01:01:46.664Z,91.25
2023-04-27T01:04:17.901Z,91.55
2023-04-27T01:06:45.988Z,91.72
2023-04-27T01:09:12.804Z,91.96
2023-04-27T01:11:39.631Z,92.23
2023-04-27T01:14:09.858Z,92.17
2023-04-27T01:16:37.974Z,92.33
2023-04-27T01:19:06.242Z,92.39
2023-04-27T01:21:33.724Z,92.59
2023-04-27T01:24:00.438Z,92.81
2023-04-27T01:26:27.108Z,92.89
2023-04-27T01:28:53.741Z,92.86
2023-04-27T01:31:20.509Z,92.93
2023-04-27T01:33:47.158Z,93.02
2023-04-27T01:36:14.045Z,92.91
2023-04-27T01:38:41.065Z,92.97
2023-04-27T01:41:09.283Z,93.04
2023-04-27T01:43:39.362Z,93.07
2023-04-27T01:46:10.335Z,93.11
2023-04-27T01:48:37.355Z,93.01
2023-04-27T01:51:04.181Z,93.13
2023-04-27T01:53:31.077Z,93.29
2023-04-27T01:55:59.625Z,93.23
2023-04-27T01:58:26.708Z,93.44
2023-04-27T02:00:53.944Z,93.59
2023-04-27T02:03:20.895Z,93.76
2023-04-27T02:05:50.485Z,93.89
2023-04-27T02:08:17.177Z,94.28
2023-04-27T02:10:44.947Z,94.49
2023-04-27T02:13:11.564Z,94.65
2023-04-27T02:15:38.236Z,94.90
2023-04-27T02:18:05.122Z,95.16
2023-04-27T02:20:32.507Z,95.26
2023-04-27T02:23:01.011Z,95.33
2023-04-27T02:25:27.923Z,95.33
2023-04-27T02:27:55.052Z,95.08
2023-04-27T02:30:22.349Z,94.80
2023-04-27T02:32:49.804Z,94.78
2023-04-27T02:35:16.578Z,94.84
2023-04-27T02:37:43.259Z,94.73
2023-04-27T02:40:10.369Z,94.89
2023-04-27T02:42:38.925Z,94.84
2023-04-27T02:45:08.919Z,95.01
2023-04-27T02:47:36.478Z,94.96
2023-04-27T02:50:03.923Z,94.95
2023-04-27T02:52:33.483Z,94.94
2023-04-27T02:55:00.165Z,94.88
2023-04-27T02:57:27.784Z,94.71
2023-04-27T02:59:54.418Z,94.66
2023-04-27T03:02:21.309Z,94.83
2023-04-27T03:04:53.536Z,94.91
2023-04-27T03:07:21.499Z,94.84
2023-04-27T03:09:48.173Z,94.89
2023-04-27T03:12:14.833Z,94.76
2023-04-27T03:14:41.507Z,94.73
2023-04-27T03:17:08.237Z,94.69
2023-04-27T03:19:34.866Z,94.64
2023-04-27T03:22:01.488Z,94.65
2023-04-27T03:24:28.115Z,94.73
2023-04-27T03:26:54.728Z,94.59
2023-04-27T03:29:21.570Z,94.43
2023-04-27T03:31:48.258Z,94.31
2023-04-27T03:34:14.985Z,94.04
2023-04-27T03:36:42.043Z,93.72
2023-04-27T03:39:10.035Z,93.33
2023-04-27T03:41:36.672Z,93.00
2023-04-27T03:44:06.478Z,92.90
2023-04-27T03:46:34.666Z,92.72
2023-04-27T03:49:01.620Z,92.45
2023-04-27T03:51:28.457Z,92.28
2023-04-27T03:53:55.154Z,92.19
2023-04-27T03:56:22.796Z,92.11
2023-04-27T03:58:49.805Z,92.15
2023-04-27T04:01:22.057Z,92.15
2023-04-27T04:03:49.077Z,92.20
2023-04-27T04:06:16.204Z,92.20
2023-04-27T04:08:42.890Z,92.20
2023-04-27T04:11:09.728Z,92.39
2023-04-27T04:13:36.749Z,92.36
2023-04-27T04:16:07.776Z,92.38
2023-04-27T04:18:34.897Z,92.61
2023-04-27T04:21:01.724Z,92.77
2023-04-27T04:23:28.452Z,92.68
2023-04-27T04:25:58.664Z,92.68
2023-04-27T04:28:28.109Z,92.36
2023-04-27T04:30:54.871Z,92.40
2023-04-27T04:33:21.985Z,92.43
2023-04-27T04:35:48.725Z,92.27
2023-04-27T04:38:15.739Z,91.87
2023-04-27T04:40:45.294Z,91.97
2023-04-27T04:43:13.511Z,91.94
2023-04-27T04:45:42.073Z,91.96
2023-04-27T04:48:08.909Z,92.24
2023-04-27T04:50:36.029Z,92.07
2023-04-27T04:53:02.868Z,92.04
2023-04-27T04:55:29.589Z,91.95
2023-04-27T04:57:56.286Z,91.80
2023-04-27T05:00:23.307Z,91.42
2023-04-27T05:02:50.338Z,91.30
2023-04-27T05:05:17.291Z,91.48
2023-04-27T05:07:44.011Z,91.46
2023-04-27T05:10:10.750Z,91.56
2023-04-27T05:12:37.483Z,91.40
2023-04-27T05:15:04.892Z,91.34
2023-04-27T05:17:31.866Z,91.28
2023-04-27T05:19:58.642Z,91.18
2023-04-27T05:22:25.418Z,90.99
2023-04-27T05:24:52.036Z,90.94
2023-04-27T05:27:18.749Z,90.75
2023-04-27T05:29:45.356Z,90.74
2023-04-27T05:32:12.028Z,90.65
2023-04-27T05:34:38.848Z,90.51
2023-04-27T05:37:05.455Z,89.93
2023-04-27T05:39:32.480Z,89.61
2023-04-27T05:41:59.121Z,89.23
2023-04-27T05:44:29.695Z,89.19
2023-04-27T05:46:56.461Z,89.05
2023-04-27T05:49:23.486Z,88.92
2023-04-27T05:51:50.162Z,88.85
2023-04-27T05:54:16.847Z,88.65
2023-04-27T05:56:43.566Z,88.26
2023-04-27T05:59:12.867Z,88.06
2023-04-27T06:01:41.523Z,88.13
2023-04-27T06:04:08.420Z,88.09
2023-04-27T06:06:35.543Z,88.15
2023-04-27T06:10:26.854Z,88.33
2023-04-27T06:12:53.650Z,88.25
2023-04-27T06:15:20.953Z,88.32
2023-04-27T06:17:47.811Z,88.43
2023-04-27T06:20:15.930Z,88.44
2023-04-27T06:22:42.606Z,88.36
2023-04-27T06:25:09.471Z,88.55
2023-04-27T06:27:36.481Z,88.35
2023-04-27T06:30:03.804Z,88.33
2023-04-27T06:32:30.578Z,88.27
2023-04-27T06:34:57.283Z,88.40
2023-04-27T06:37:23.908Z,88.25
2023-04-27T06:39:50.728Z,88.17
2023-04-27T06:42:17.447Z,88.00
2023-04-27T06:44:44.179Z,87.86
2023-04-27T06:47:11.141Z,87.64
2023-04-27T06:49:37.902Z,87.32
2023-04-27T06:52:04.973Z,87.00
2023-04-27T06:54:31.627Z,86.97
2023-04-27T06:56:58.263Z,86.92
2023-04-27T06:59:25.290Z,86.66
2023-04-27T07:01:52.187Z,86.54
2023-04-27T07:04:19.296Z,86.34
2023-04-27T07:06:46.438Z,86.15
2023-04-27T07:09:26.061Z,85.76
2023-04-27T07:11:55.847Z,85.40
2023-04-27T07:14:22.676Z,85.30
2023-04-27T07:16:49.387Z,85.34
2023-04-27T07:19:19.639Z,85.03
2023-04-27T07:21:46.921Z,84.43
2023-04-27T07:24:13.591Z,84.02
2023-04-27T07:26:41.482Z,84.35
2023-04-27T07:29:25.519Z,84.00
2023-04-27T07:31:54.224Z,84.06
2023-04-27T07:34:20.976Z,83.78
2023-04-27T07:36:47.600Z,83.59
2023-04-27T07:39:15.060Z,83.41
2023-04-27T07:41:41.990Z,83.07
2023-04-27T07:44:11.348Z,82.83
2023-04-27T07:46:39.243Z,82.64
2023-04-27T07:49:06.080Z,82.29
2023-04-27T07:51:34.594Z,81.87
2023-04-27T07:54:02.578Z,81.66
2023-04-27T07:56:29.170Z,81.67
2023-04-27T07:58:56.190Z,81.71
2023-04-27T08:01:23.052Z,81.51
2023-04-27T08:03:50.426Z,81.81
2023-04-27T08:06:18.987Z,82.05
2023-04-27T08:08:46.341Z,82.17
2023-04-27T08:11:13.079Z,82.13
2023-04-27T08:13:39.730Z,82.01
2023-04-27T08:16:07.056Z,82.02
2023-04-27T08:18:34.450Z,81.63
2023-04-27T08:21:01.247Z,81.15
2023-04-27T08:23:32.987Z,81.10
2023-04-27T08:25:59.771Z,80.93
2023-04-27T08:28:26.885Z,80.78
2023-04-27T08:30:53.598Z,81.02
2023-04-27T08:33:20.400Z,81.41
2023-04-27T08:35:47.034Z,81.85
2023-04-27T08:38:13.938Z,81.89
2023-04-27T08:40:47.223Z,82.14
2023-04-27T08:43:15.006Z,82.54
2023-04-27T08:45:47.879Z,82.60
2023-04-27T08:48:14.648Z,82.67
2023-04-27T08:50:42.502Z,82.60
2023-04-27T08:53:17.554Z,82.35
2023-04-27T08:55:45.466Z,81.96
2023-04-27T08:58:12.689Z,81.79
2023-04-27T09:00:41.562Z,81.92
2023-04-27T09:03:18.374Z,81.74
2023-04-27T09:06:00.541Z,81.47
2023-04-27T09:08:46.879Z,81.21
2023-04-27T09:11:27.477Z,80.93
2023-04-27T09:13:54.187Z,80.83
2023-04-27T09:16:29.262Z,80.48
2023-04-27T09:18:57.003Z,80.23
2023-04-27T09:21:28.663Z,80.44
2023-04-27T09:23:56.000Z,80.63
2023-04-27T09:26:24.949Z,80.60
2023-04-27T09:28:52.874Z,80.30
2023-04-27T09:31:19.656Z,80.29
2023-04-27T09:33:47.569Z,80.30
2023-04-27T09:36:14.395Z,80.47
2023-04-27T09:38:41.134Z,80.74
2023-04-27T09:41:08.000Z,81.10
2023-04-27T09:43:34.751Z,81.26
2023-04-27T09:46:01.790Z,81.29
2023-04-27T09:48:28.749Z,81.08
2023-04-27T09:50:56.179Z,81.16
2023-04-27T09:53:46.703Z,81.15
2023-04-27T09:56:31.702Z,81.02
2023-04-27T09:59:26.939Z,81.00
2023-04-27T10:01:57.688Z,81.30
2023-04-27T10:04:51.966Z,81.41
2023-04-27T10:07:18.989Z,81.43
2023-04-27T10:09:46.938Z,81.60
2023-04-27T10:12:27.004Z,81.32
2023-04-27T10:14:55.569Z,81.34
2023-04-27T10:17:48.903Z,81.26
2023-04-27T10:20:16.106Z,80.95
2023-04-27T10:22:44.416Z,80.80
2023-04-27T10:25:19.302Z,80.79
2023-04-27T10:27:59.578Z,81.22
2023-04-27T10:30:27.740Z,81.68
2023-04-27T10:32:58.547Z,81.68
2023-04-27T10:35:39.429Z,80.87
2023-04-27T10:38:10.530Z,80.59
2023-04-27T10:40:38.357Z,80.86
2023-04-27T10:43:09.508Z,80.99
2023-04-27T10:45:36.349Z,81.25
2023-04-27T10:48:03.107Z,81.26
2023-04-27T10:50:30.047Z,81.09
2023-04-27T10:53:02.052Z,81.12
2023-04-27T10:55:29.540Z,80.54
2023-04-27T10:57:57.584Z,80.05
2023-04-27T11:00:25.424Z,79.61
2023-04-27T11:02:53.846Z,79.53
2023-04-27T11:05:25.655Z,79.49
2023-04-27T11:07:53.292Z,79.44
2023-04-27T11:10:20.784Z,79.91
2023-04-27T11:12:47.415Z,80.29
2023-04-27T11:15:14.537Z,80.19
2023-04-27T11:17:41.799Z,80.01
2023-04-27T11:20:09.111Z,80.48
2023-04-27T11:22:44.861Z,80.63
2023-04-27T11:25:11.806Z,80.55
2023-04-27T11:27:39.427Z,80.38
2023-04-27T11:30:07.577Z,80.22
2023-04-27T11:32:34.471Z,80.47
2023-04-27T11:35:01.246Z,80.41
2023-04-27T11:37:28.278Z,80.49
2023-04-27T11:39:55.077Z,80.70
2023-04-27T11:42:25.876Z,80.77
2023-04-27T11:44:53.318Z,80.99
2023-04-27T11:47:21.354Z,80.92
2023-04-27T11:49:58.581Z,81.10
2023-04-27T11:52:32.139Z,81.12
2023-04-27T11:55:00.453Z,81.07
2023-04-27T11:57:31.760Z,81.64
2023-04-27T12:00:00.685Z,81.85
2023-04-27T12:02:28.560Z,81.41
2023-04-27T12:04:56.073Z,81.04
2023-04-27T12:07:23.047Z,80.86
2023-04-27T12:09:51.042Z,80.87
2023-04-27T12:12:22.243Z,80.73
2023-04-27T12:14:49.634Z,80.53
2023-04-27T12:17:16.617Z,80.22
2023-04-27T12:19:43.317Z,80.28
2023-04-27T12:22:10.336Z,80.23
2023-04-27T12:24:37.424Z,80.12
2023-04-27T12:27:04.533Z,80.30
2023-04-27T12:29:33.744Z,79.93
2023-04-27T12:32:00.426Z,80.04
2023-04-27T12:34:32.047Z,80.02
2023-04-27T12:36:58.917Z,79.28
2023-04-27T12:39:25.835Z,78.49
2023-04-27T12:41:53.114Z,77.90
2023-04-27T12:44:21.575Z,78.05
2023-04-27T12:46:48.628Z,78.29
2023-04-27T12:49:15.861Z,78.14
2023-04-27T12:51:42.661Z,77.94
2023-04-27T12:54:13.200Z,77.97
2023-04-27T12:56:42.264Z,78.11
2023-04-27T12:59:09.292Z,78.10
2023-04-27T13:01:36.090Z,78.25
2023-04-27T13:04:06.221Z,78.69
2023-04-27T13:06:34.705Z,79.00
2023-04-27T13:09:02.474Z,79.13
2023-04-27T13:11:29.171Z,79.66
2023-04-27T13:13:56.014Z,79.86
2023-04-27T13:16:25.305Z,80.24
2023-04-27T13:18:53.786Z,80.15
2023-04-27T13:21:20.986Z,80.29
2023-04-27T13:23:48.187Z,80.04
2023-04-27T13:26:16.570Z,79.95
2023-04-27T13:28:44.785Z,80.36
2023-04-27T13:31:13.132Z,80.42
2023-04-27T13:33:44.580Z,80.12
2023-04-27T13:36:12.419Z,80.25
2023-04-27T13:38:39.910Z,80.23
2023-04-27T13:41:07.373Z,80.15
2023-04-27T13:43:35.025Z,80.33
2023-04-27T13:46:03.276Z,80.09
2023-04-27T13:48:30.804Z,80.20
2023-04-27T13:50:58.683Z,80.32
2023-04-27T13:53:26.180Z,80.61
2023-04-27T13:55:57.418Z,81.01
2023-04-27T13:58:26.225Z,81.02
2023-04-27T14:00:54.201Z,81.02
2023-04-27T14:03:21.725Z,80.48
2023-04-27T14:05:50.374Z,80.30
2023-04-27T14:08:17.275Z,79.79
2023-04-27T14:10:44.963Z,79.30
2023-04-27T14:13:12.623Z,79.18
2023-04-27T14:15:39.381Z,78.55
2023-04-27T14:18:07.667Z,78.13
2023-04-27T14:20:35.549Z,77.78
2023-04-27T14:23:04.266Z,77.59
2023-04-27T14:25:32.809Z,77.54
2023-04-27T14:28:03.211Z,77.33
2023-04-27T14:30:31.369Z,76.94
2023-04-27T14:32:58.113Z,76.98
2023-04-27T14:35:24.912Z,76.94
2023-04-27T14:37:52.367Z,76.89
2023-04-27T14:40:19.316Z,76.83
2023-04-27T14:42:46.974Z,76.73
2023-04-27T14:45:13.796Z,76.96
2023-04-27T14:47:40.624Z,76.92
2023-04-27T14:50:08.366Z,76.78
2023-04-27T14:52:35.043Z,76.39
2023-04-27T14:55:01.678Z,76.07
2023-04-27T14:57:28.357Z,76.15
2023-04-27T14:59:55.063Z,76.26
2023-04-27T15:02:21.820Z,76.39
2023-04-27T15:04:48.578Z,76.35
2023-04-27T15:07:15.492Z,76.24
2023-04-27T15:09:42.204Z,76.03
2023-04-27T15:12:10.000Z,75.99
2023-04-27T15:14:36.803Z,75.87
2023-04-27T15:17:03.421Z,75.74
2023-04-27T15:19:30.079Z,75.31
2023-04-27T15:21:56.954Z,75.05
2023-04-27T15:24:23.690Z,74.97
2023-04-27T15:26:50.571Z,74.91
2023-04-27T15:29:17.216Z,74.85
2023-04-27T15:31:43.984Z,74.79
2023-04-27T15:34:10.901Z,74.67
2023-04-27T15:36:38.100Z,74.69
2023-04-27T15:39:04.735Z,74.89
2023-04-27T15:41:31.551Z,74.71
2023-04-27T15:43:58.168Z,74.80
2023-04-27T15:46:24.861Z,74.46
2023-04-27T15:48:51.578Z,74.31
2023-04-27T15:51:18.243Z,74.30
2023-04-27T15:53:44.858Z,74.26
2023-04-27T15:56:11.834Z,74.37
2023-04-27T15:58:38.623Z,74.32
2023-04-27T16:01:05.401Z,74.10
2023-04-27T16:03:33.384Z,74.04
2023-04-27T16:06:00.135Z,73.93
2023-04-27T16:08:27.932Z,73.46
2023-04-27T16:10:54.716Z,73.39
2023-04-27T16:13:21.368Z,73.20
2023-04-27T16:15:48.091Z,72.94
2023-04-27T16:18:14.786Z,73.13
2023-04-27T16:20:41.881Z,73.25
2023-04-27T16:23:08.512Z,73.36
2023-04-27T16:25:35.270Z,73.54
2023-04-27T16:28:02.001Z,73.65
2023-04-27T16:30:28.952Z,73.62
2023-04-27T16:32:55.875Z,73.59
2023-04-27T16:35:22.699Z,73.44
2023-04-27T16:37:50.249Z,73.22
2023-04-27T16:40:17.026Z,73.48
2023-04-27T16:42:43.650Z,73.15
2023-04-27T16:45:11.075Z,73.05
2023-04-27T16:47:38.407Z,73.02
2023-04-27T16:50:05.702Z,73.04
2023-04-27T16:52:32.345Z,72.88
2023-04-27T16:54:59.018Z,72.79
2023-04-27T16:57:26.029Z,72.71
2023-04-27T16:59:52.667Z,72.64
2023-04-27T17:02:25.320Z,72.53
2023-04-27T17:04:54.188Z,72.49
2023-04-27T17:07:21.349Z,72.58
2023-04-27T17:09:48.586Z,72.42
2023-04-27T17:12:16.846Z,72.23
2023-04-27T17:14:43.583Z,72.02
2023-04-27T17:17:10.316Z,72.22
2023-04-27T17:19:41.781Z,72.30
2023-04-27T17:22:11.275Z,72.05
2023-04-27T17:24:37.912Z,71.94
2023-04-27T17:27:04.705Z,71.87
2023-04-27T17:29:31.965Z,71.69
2023-04-27T17:31:58.955Z,71.64
2023-04-27T17:34:25.970Z,71.53
2023-04-27T17:36:52.683Z,71.49
2023-04-27T17:39:20.664Z,71.39
2023-04-27T17:41:47.298Z,71.56
2023-04-27T17:44:14.082Z,71.80
2023-04-27T17:46:47.753Z,71.68
2023-04-27T17:49:15.754Z,71.82
2023-04-27T17:51:46.017Z,71.87
2023-04-27T17:54:15.126Z,72.06
2023-04-27T17:56:44.029Z,72.02
2023-04-27T17:59:10.671Z,72.10
2023-04-27T18:01:37.305Z,72.08
2023-04-27T18:04:06.790Z,71.88
2023-04-27T18:06:34.097Z,71.93
2023-04-27T18:09:00.755Z,71.95
2023-04-27T18:11:27.446Z,71.93
2023-04-27T18:13:54.688Z,71.91
2023-04-27T18:16:21.527Z,71.91
2023-04-27T18:18:48.218Z,72.00
2023-04-27T18:21:14.863Z,72.02
2023-04-27T18:23:42.656Z,72.04
2023-04-27T18:28:59.218Z,71.87
2023-04-27T18:31:25.959Z,71.92
2023-04-27T18:33:52.657Z,71.90
2023-04-27T18:36:19.899Z,71.82
2023-04-27T18:38:48.392Z,71.80
2023-04-27T18:41:15.198Z,71.92
2023-04-27T18:43:41.940Z,72.00
2023-04-27T18:46:08.745Z,71.83
2023-04-27T18:48:35.719Z,71.95
2023-04-27T18:51:02.547Z,72.17
2023-04-27T18:53:29.256Z,72.28
2023-04-27T18:55:56.189Z,72.31
2023-04-27T18:58:23.324Z,72.18
2023-04-27T19:00:50.117Z,72.29
2023-04-27T19:03:16.912Z,72.60
2023-04-27T19:05:44.206Z,72.62
2023-04-27T19:08:11.213Z,72.67
2023-04-27T19:10:38.040Z,72.77
2023-04-27T19:13:04.749Z,72.97
2023-04-27T19:15:31.497Z,73.12
2023-04-27T19:18:07.094Z,73.17
2023-04-27T19:20:37.902Z,72.93
2023-04-27T19:23:05.329Z,73.08
2023-04-27T19:25:32.113Z,73.32
2023-04-27T19:27:59.035Z,73.45
2023-04-27T19:30:26.062Z,73.61
2023-04-27T19:32:52.768Z,73.73
2023-04-27T19:35:20.521Z,73.88
2023-04-27T19:37:47.230Z,73.76
2023-04-27T19:40:15.016Z,74.10
2023-04-27T19:42:41.776Z,74.37
2023-04-27T19:45:08.552Z,74.65
2023-04-27T19:47:35.727Z,74.82
2023-04-27T19:50:02.821Z,75.01
2023-04-27T19:52:29.434Z,75.27
2023-04-27T19:54:56.122Z,75.45
2023-04-27T19:57:22.861Z,75.65
2023-04-27T19:59:49.523Z,75.76
2023-04-27T20:02:16.303Z,75.73
2023-04-27T20:04:43.248Z,75.84
2023-04-27T20:07:10.086Z,75.96
2023-04-27T20:09:36.716Z,75.82
2023-04-27T20:12:04.142Z,75.81
2023-04-27T20:14:33.697Z,75.83
2023-04-27T20:17:00.602Z,75.90
2023-04-27T20:19:27.240Z,76.03
2023-04-27T20:21:53.970Z,76.07
2023-04-27T20:24:24.787Z,76.14
2023-04-27T20:26:51.855Z,76.16
2023-04-27T20:29:18.506Z,76.33
2023-04-27T20:31:45.267Z,76.50
2023-04-27T20:34:12.292Z,76.68
2023-04-27T20:36:39.091Z,76.66
2023-04-27T20:39:05.946Z,76.86
2023-04-27T20:41:35.806Z,76.96
2023-04-27T20:44:03.610Z,76.98
2023-04-27T20:46:32.224Z,77.19
2023-04-27T20:48:58.945Z,77.24
2023-04-27T20:51:26.510Z,77.38
2023-04-27T20:53:53.367Z,77.57
2023-04-27T20:56:20.342Z,77.83
2023-04-27T20:58:46.989Z,77.84
2023-04-27T21:01:13.743Z,77.84
2023-04-27T21:03:41.534Z,77.78
2023-04-27T21:06:08.397Z,77.99
2023-04-27T21:08:35.083Z,78.06
2023-04-27T21:11:01.754Z,78.09
2023-04-27T21:13:28.465Z,78.15
2023-04-27T21:15:55.104Z,78.17
2023-04-27T21:18:29.883Z,78.17
2023-04-27T21:20:57.512Z,78.11
2023-04-27T21:23:24.210Z,78.07
2023-04-27T21:25:50.820Z,77.93
2023-04-27T21:28:17.431Z,77.72
2023-04-27T21:30:44.292Z,77.84
2023-04-27T21:33:11.157Z,77.91
2023-04-27T21:35:37.879Z,77.82
2023-04-27T21:38:04.570Z,77.63
2023-04-27T21:40:31.199Z,77.45
2023-04-27T21:42:57.837Z,77.36
2023-04-27T21:45:24.553Z,77.21
2023-04-27T21:47:51.274Z,77.00
2023-04-27T21:50:18.200Z,76.82
2023-04-27T21:52:44.914Z,76.54
2023-04-27T21:55:11.695Z,76.41
2023-04-27T21:57:38.351Z,76.17
2023-04-27T22:00:13.311Z,76.01
2023-04-27T22:02:46.995Z,75.89
2023-04-27T22:05:14.175Z,75.71
2023-04-27T22:07:41.437Z,75.38
2023-04-27T22:10:08.416Z,74.85
2023-04-27T22:12:35.067Z,74.74
2023-04-27T22:15:01.739Z,74.39
2023-04-27T22:17:28.405Z,74.00
2023-04-27T22:19:55.071Z,73.82
2023-04-27T22:22:21.749Z,73.62
2023-04-27T22:24:48.646Z,73.39
2023-04-27T22:27:15.406Z,73.42
2023-04-27T22:29:42.036Z,73.40
2023-04-27T22:32:08.867Z,73.22
2023-04-27T22:34:36.096Z,72.97
2023-04-27T22:37:02.876Z,72.50
2023-04-27T22:39:30.312Z,72.03
2023-04-27T22:41:56.956Z,71.79
2023-04-27T22:44:27.250Z,71.62
2023-04-27T22:46:55.461Z,71.32
2023-04-27T22:49:22.412Z,71.04
2023-04-27T22:51:49.804Z,70.75
2023-04-27T22:54:19.320Z,70.83
2023-04-27T22:56:47.370Z,70.65
2023-04-27T22:59:15.126Z,70.31
2023-04-27T23:01:42.603Z,70.04
2023-04-27T23:04:09.952Z,69.69
2023-04-27T23:06:38.171Z,69.72
2023-04-27T23:09:05.569Z,69.62
2023-04-27T23:11:32.310Z,69.43
2023-04-27T23:13:59.104Z,69.09
2023-04-27T23:16:25.843Z,68.81
2023-04-27T23:18:52.901Z,68.66
2023-04-27T23:21:19.546Z,68.59
2023-04-27T23:23:46.156Z,68.29
2023-04-27T23:26:16.368Z,68.19
2023-04-27T23:28:43.309Z,68.23
2023-04-27T23:31:10.078Z,68.21
2023-04-27T23:33:36.901Z,68.12
2023-04-27T23:36:04.497Z,67.90
2023-04-27T23:38:31.148Z,67.72
2023-04-27T23:40:57.958Z,67.52
2023-04-27T23:43:24.629Z,67.37
2023-04-27T23:45:51.784Z,67.05
2023-04-27T23:48:18.916Z,66.87
2023-04-27T23:50:45.637Z,66.77
2023-04-27T23:53:12.371Z,66.83
2023-04-27T23:55:39.076Z,66.70
2023-04-27T23:58:05.710Z,66.48
